createdAt,value
2019-06-27T03:57:59.355Z,23.67
2019-06-27T04:03:04.814Z,25.95
2019-06-27T04:08:09.542Z,28.85
2019-06-27T04:13:14.268Z,23.47
2019-06-27T04:18:19.056Z,21.97
2019-06-27T04:23:24.113Z,18.30
2019-06-27T04:28:30.783Z,18.07
2019-06-27T04:33:36.149Z,19.85
2019-06-27T04:38:41.122Z,16.95
2019-06-27T04:43:45.662Z,20.97
2019-06-27T04:49:01.497Z,22.37
2019-06-27T04:54:06.135Z,18.23
2019-06-27T04:59:10.794Z,23.65
2019-06-27T05:04:15.738Z,17.42
2019-06-27T05:09:21.521Z,20.68
2019-06-27T05:14:27.077Z,22.73
2019-06-27T05:19:32.242Z,20.37
2019-06-27T05:24:37.212Z,23.00
2019-06-27T05:29:41.941Z,22.20
2019-06-27T05:34:46.762Z,19.25
2019-06-27T05:39:51.377Z,19.82
2019-06-27T05:44:56.360Z,16.32
2019-06-27T05:50:00.876Z,21.73
2019-06-27T05:55:07.276Z,17.45
2019-06-27T06:00:27.690Z,17.20
2019-06-27T06:05:22.409Z,23.85
2019-06-27T06:10:26.775Z,21.68
2019-06-27T06:15:31.649Z,12.35
2019-06-27T06:20:36.722Z,17.95
2019-06-27T06:25:41.468Z,18.37
2019-06-27T06:30:45.957Z,18.50
2019-06-27T06:35:50.588Z,20.70
2019-06-27T06:40:55.754Z,13.18
2019-06-27T06:46:01.095Z,11.05
2019-06-27T06:51:05.845Z,15.48
2019-06-27T06:56:10.583Z,18.07
2019-06-27T07:01:15.246Z,14.83
2019-06-27T07:06:22.944Z,25.10
2019-06-27T07:11:28.017Z,14.80
2019-06-27T07:16:32.764Z,15.72
2019-06-27T07:21:37.247Z,12.07
2019-06-27T07:26:42.499Z,15.98
2019-06-27T07:31:48.430Z,18.27
2019-06-27T07:36:53.177Z,17.30
2019-06-27T07:41:57.737Z,13.72
2019-06-27T07:47:02.180Z,16.27
2019-06-27T07:52:07.966Z,10.78
2019-06-27T07:57:13.869Z,15.13
2019-06-27T08:02:18.369Z,12.65
2019-06-27T08:07:24.036Z,15.38
2019-06-27T08:12:28.770Z,19.52
2019-06-27T08:17:33.403Z,14.03
2019-06-27T08:22:38.520Z,13.95
2019-06-27T08:27:42.945Z,19.34
2019-06-27T08:32:47.707Z,19.37
2019-06-27T08:37:52.511Z,12.65
2019-06-27T08:42:57.269Z,12.03
2019-06-27T08:48:01.572Z,15.80
2019-06-27T08:53:06.177Z,19.27
2019-06-27T08:58:10.903Z,15.97
2019-06-27T09:03:15.357Z,18.35
2019-06-27T09:08:19.712Z,15.20
2019-06-27T09:13:25.577Z,11.80
2019-06-27T09:18:30.102Z,17.70
2019-06-27T09:23:37.465Z,17.23
2019-06-27T09:28:40.645Z,15.65
2019-06-27T09:33:45.445Z,15.75
2019-06-27T09:38:50.131Z,16.70
2019-06-27T09:43:54.564Z,16.75
2019-06-27T09:48:59.375Z,19.12
2019-06-27T09:54:04.680Z,17.77
2019-06-27T09:59:10.236Z,18.60
2019-06-27T10:04:14.614Z,24.67
2019-06-27T10:09:19.331Z,15.43
2019-06-27T10:14:24.280Z,18.48
2019-06-27T10:19:29.266Z,18.37
2019-06-27T10:24:34.223Z,13.48
2019-06-27T10:29:38.996Z,21.20
2019-06-27T10:34:43.375Z,23.55
2019-06-27T10:39:48.530Z,22.07
2019-06-27T10:44:54.363Z,22.48
2019-06-27T10:50:01.082Z,19.90
2019-06-27T10:55:05.805Z,21.65
2019-06-27T11:00:11.024Z,21.30
2019-06-27T11:05:15.473Z,24.27
2019-06-27T11:10:20.716Z,21.57
2019-06-27T11:15:25.702Z,19.00
2019-06-27T11:20:30.090Z,19.57
2019-06-27T11:25:34.896Z,24.52
2019-06-27T11:30:39.292Z,18.87
2019-06-27T11:35:44.302Z,18.57
2019-06-27T11:40:48.768Z,24.67
2019-06-27T11:45:53.234Z,18.20
2019-06-27T11:50:57.646Z,24.30
2019-06-27T11:56:02.358Z,28.30
2019-06-27T12:01:07.105Z,27.55
2019-06-27T12:06:12.568Z,23.40
2019-06-27T12:11:17.134Z,20.68
2019-06-27T12:16:21.876Z,20.57
2019-06-27T12:21:26.411Z,15.93
2019-06-27T12:26:32.308Z,28.17
2019-06-27T12:31:37.204Z,19.77
2019-06-27T12:36:41.576Z,22.75
2019-06-27T12:41:46.423Z,24.10
2019-06-27T12:46:52.111Z,20.00
2019-06-27T12:51:57.236Z,20.93
2019-06-27T12:57:02.353Z,19.10
2019-06-27T13:02:07.222Z,25.97
2019-06-27T13:07:13.584Z,26.85
2019-06-27T13:12:17.920Z,16.02
2019-06-27T13:17:22.647Z,17.20
2019-06-27T13:22:27.615Z,35.65
2019-06-27T13:27:32.344Z,15.53
2019-06-27T13:32:37.016Z,20.67
2019-06-27T13:37:41.531Z,22.93
2019-06-27T13:42:46.784Z,20.43
2019-06-27T13:47:51.454Z,17.27
2019-06-27T13:52:57.165Z,13.00
2019-06-27T13:58:02.446Z,17.98
2019-06-27T14:03:07.216Z,25.27
2019-06-27T14:08:11.880Z,19.35
2019-06-27T14:13:16.659Z,22.37
2019-06-27T14:18:22.585Z,16.87
2019-06-27T14:23:27.009Z,15.08
2019-06-27T14:28:32.204Z,17.50
2019-06-27T14:33:37.323Z,18.40
2019-06-27T14:38:43.109Z,22.45
2019-06-27T14:43:48.294Z,11.83
2019-06-27T14:48:56.864Z,14.83
2019-06-27T14:54:00.288Z,17.32
2019-06-27T14:59:04.779Z,14.25
2019-06-27T15:04:09.397Z,17.57
2019-06-27T15:09:16.394Z,16.55
2019-06-27T15:14:24.175Z,18.48
2019-06-27T15:19:29.466Z,19.10
2019-06-27T15:24:34.213Z,17.20
2019-06-27T15:29:39.478Z,18.90
2019-06-27T15:34:44.391Z,14.75
2019-06-27T15:39:52.719Z,13.93
2019-06-27T15:44:57.891Z,15.45
2019-06-27T15:50:02.728Z,20.55
2019-06-27T15:55:09.486Z,25.80
2019-06-27T16:00:14.317Z,20.10
2019-06-27T16:05:19.039Z,21.02
2019-06-27T16:10:23.607Z,19.95
2019-06-27T16:15:28.557Z,13.98
2019-06-27T16:20:33.157Z,15.28
2019-06-27T16:25:38.649Z,18.10
2019-06-27T16:30:43.736Z,19.02
2019-06-27T16:35:48.353Z,15.75
2019-06-27T16:40:53.841Z,18.77
2019-06-27T16:45:59.003Z,22.58
2019-06-27T16:51:04.660Z,21.45
2019-06-27T16:56:10.593Z,16.85
2019-06-27T17:01:14.983Z,15.07
2019-06-27T17:06:20.463Z,11.80
2019-06-27T17:11:28.418Z,14.28
2019-06-27T17:16:37.699Z,17.25
2019-06-27T17:21:42.501Z,16.95
2019-06-27T17:26:47.333Z,16.77
2019-06-27T17:31:52.459Z,11.83
2019-06-27T17:36:58.267Z,12.68
2019-06-27T17:42:03.359Z,9.70
2019-06-27T17:47:09.372Z,8.57
2019-06-27T17:52:14.155Z,13.32
2019-06-27T17:57:19.720Z,9.95
2019-06-27T18:02:25.986Z,12.60
2019-06-27T18:07:31.199Z,8.33
2019-06-27T18:12:36.055Z,13.50
2019-06-27T18:17:40.635Z,6.60
2019-06-27T18:22:47.377Z,5.78
2019-06-27T18:27:52.802Z,6.53
2019-06-27T18:32:58.779Z,7.48
2019-06-27T18:38:03.938Z,6.50
2019-06-27T18:43:08.720Z,5.50
2019-06-27T18:48:13.461Z,10.60
2019-06-27T18:53:18.657Z,5.62
2019-06-27T18:58:23.640Z,9.33
2019-06-27T19:03:29.623Z,5.03
2019-06-27T19:08:34.673Z,7.72
2019-06-27T19:13:39.418Z,7.30
2019-06-27T19:18:45.006Z,5.30
2019-06-27T19:24:04.070Z,3.60
2019-06-27T19:29:11.509Z,3.60
2019-06-27T19:34:16.948Z,3.70
2019-06-27T19:39:23.896Z,3.17
2019-06-27T19:44:28.684Z,6.60
2019-06-27T19:49:33.536Z,3.45
2019-06-27T19:54:38.776Z,3.80
2019-06-27T19:59:43.248Z,4.45
2019-06-27T20:04:49.441Z,3.40
2019-06-27T20:09:54.190Z,4.00
2019-06-27T20:14:58.789Z,6.92
2019-06-27T20:20:03.581Z,2.58
2019-06-27T20:25:08.231Z,4.28
2019-06-27T20:30:12.804Z,16.17
2019-06-27T20:35:18.722Z,1.50
2019-06-27T20:40:23.794Z,5.85
